Time;durP1;ratioP1;P1;durP2;ratioP2;P2;SDS_P1;SDS_P2;PMS_P1;PMS_P2;Temp;Humidity;BMP_temperature;BMP_pressure;BME280_temperature;BME280_humidity;BME280_pressure;Samples;Min_cycle;Max_cycle;Signal;HPM_P1;HPM_P2
2021/04/27 00:00:28;;;;;;;4.30;3.85;;;9.40;31.50;;;;;;4995048;28;20030;-80
2021/04/27 00:02:54;;;;;;;5.82;3.60;;;9.30;31.50;;;;;;4975917;28;20050;-80
2021/04/27 00:05:20;;;;;;;4.45;3.75;;;9.30;31.70;;;;;;4988702;28;20405;-80
2021/04/27 00:07:46;;;;;;;7.25;3.97;;;9.20;31.60;;;;;;4999547;28;20037;-80
2021/04/27 00:10:14;;;;;;;6.07;4.03;;;9.20;31.70;;;;;;5004473;28;20496;-80
2021/04/27 00:12:42;;;;;;;6.00;3.80;;;9.20;31.90;;;;;;4993267;28;20056;-80
2021/04/27 00:15:14;;;;;;;5.63;4.25;;;9.10;31.80;;;;;;5007813;28;20430;-80
2021/04/27 00:17:40;;;;;;;5.15;4.32;;;9.10;32.00;;;;;;4992026;28;20034;-80
2021/04/27 00:20:07;;;;;;;4.35;3.90;;;9.10;32.00;;;;;;5003220;28;20041;-81
2021/04/27 00:22:34;;;;;;;5.10;4.60;;;9.00;32.00;;;;;;5007667;28;20045;-81
2021/04/27 00:25:00;;;;;;;5.20;4.20;;;9.00;32.10;;;;;;4991637;28;20111;-81
2021/04/27 00:27:26;;;;;;;4.47;4.13;;;9.00;32.20;;;;;;5000953;28;20299;-81
2021/04/27 00:29:52;;;;;;;5.07;4.22;;;8.90;32.10;;;;;;4976692;28;20026;-80
2021/04/27 00:32:18;;;;;;;4.50;3.88;;;8.90;32.20;;;;;;5008409;28;20029;-80
2021/04/27 00:34:44;;;;;;;7.63;4.68;;;8.90;32.30;;;;;;4997080;28;20060;-80
2021/04/27 00:37:10;;;;;;;3.38;3.08;;;8.90;32.40;;;;;;4993945;28;20057;-80
2021/04/27 00:39:37;;;;;;;5.10;3.92;;;8.80;32.20;;;;;;4998015;28;20114;-80
2021/04/27 00:42:04;;;;;;;4.28;3.83;;;8.80;32.30;;;;;;4991967;28;20048;-80
2021/04/27 00:44:30;;;;;;;7.18;4.63;;;8.70;32.20;;;;;;5012024;28;20037;-80
2021/04/27 00:46:56;;;;;;;5.15;4.47;;;8.70;32.30;;;;;;5001224;28;20483;-81
2021/04/27 00:49:22;;;;;;;6.05;4.13;;;8.70;32.40;;;;;;5001272;28;20030;-80
2021/04/27 00:51:48;;;;;;;5.53;4.65;;;8.70;32.50;;;;;;5020268;28;20548;-80
2021/04/27 00:54:14;;;;;;;6.15;4.47;;;8.60;32.30;;;;;;5026523;28;20469;-80
2021/04/27 00:56:40;;;;;;;5.50;4.45;;;8.60;32.50;;;;;;4998874;28;20432;-81
2021/04/27 00:59:07;;;;;;;5.63;4.05;;;8.60;32.60;;;;;;5022512;28;20060;-80
2021/04/27 01:01:34;;;;;;;5.40;4.65;;;8.50;32.40;;;;;;4993934;28;20049;-80
2021/04/27 01:04:00;;;;;;;5.28;4.22;;;8.50;32.50;;;;;;5010053;28;20075;-79
2021/04/27 01:06:26;;;;;;;4.53;4.13;;;8.50;32.50;;;;;;5009973;28;20034;-80
2021/04/27 01:09:08;;;;;;;6.25;4.38;;;8.50;32.60;;;;;;4992225;28;20132;-80
2021/04/27 01:12:15;;;;;;;4.22;3.75;;;8.40;32.50;;;;;;5009983;28;20075;-81
2021/04/27 01:14:46;;;;;;;5.00;4.20;;;8.30;32.40;;;;;;5009997;28;20477;-81
2021/04/27 01:17:16;;;;;;;4.85;4.38;;;8.30;32.40;;;;;;5030332;28;20033;-81
2021/04/27 01:20:04;;;;;;;4.90;4.43;;;8.30;32.50;;;;;;5001984;28;20033;-81
2021/04/27 01:22:58;;;;;;;4.97;4.00;;;8.30;32.60;;;;;;5008092;28;20423;-81
2021/04/27 01:25:54;;;;;;;4.22;3.83;;;8.20;32.50;;;;;;5010496;28;20030;-81
2021/04/27 01:28:23;;;;;;;5.32;4.63;;;8.20;32.60;;;;;;5010235;28;20057;-81
2021/04/27 01:30:50;;;;;;;4.45;4.05;;;8.10;32.30;;;;;;5008363;28;20431;-81
2021/04/27 01:33:23;;;;;;;5.15;4.32;;;8.10;32.40;;;;;;5005985;28;20037;-80
2021/04/27 01:35:50;;;;;;;6.68;4.80;;;8.00;32.40;;;;;;5010966;28;20029;-80
2021/04/27 01:38:20;;;;;;;4.65;4.25;;;8.10;32.60;;;;;;5010372;28;20033;-79
2021/04/27 01:40:46;;;;;;;4.57;4.18;;;8.00;32.50;;;;;;5007541;28;20099;-80
2021/04/27 01:43:13;;;;;;;4.65;4.25;;;8.00;32.60;;;;;;5005254;28;20334;-80
2021/04/27 01:45:40;;;;;;;4.57;3.97;;;8.00;32.60;;;;;;5008856;28;20033;-80
2021/04/27 01:48:08;;;;;;;5.00;4.15;;;8.00;32.70;;;;;;5007741;28;20030;-80
2021/04/27 01:50:37;;;;;;;4.30;3.90;;;7.90;32.60;;;;;;5013872;28;20080;-80
2021/04/27 01:53:22;;;;;;;5.43;4.50;;;7.90;32.60;;;;;;4997721;28;20037;-80
2021/04/27 01:55:49;;;;;;;5.07;4.57;;;7.90;32.70;;;;;;5005456;28;20122;-80
2021/04/27 01:58:16;;;;;;;4.95;4.55;;;7.90;32.70;;;;;;4971596;28;20078;-80
2021/04/27 02:00:44;;;;;;;5.22;4.20;;;7.90;32.80;;;;;;4990601;28;20081;-80
2021/04/27 02:03:10;;;;;;;5.60;4.05;;;7.80;32.70;;;;;;4990165;28;20423;-80
2021/04/27 02:05:37;;;;;;;5.32;4.03;;;7.80;32.70;;;;;;4993232;28;20077;-80
2021/04/27 02:08:11;;;;;;;6.07;4.28;;;7.80;32.70;;;;;;4995084;28;20057;-79
2021/04/27 02:10:39;;;;;;;5.03;4.30;;;7.80;32.80;;;;;;5010925;28;20038;-78
2021/04/27 02:13:13;;;;;;;4.05;3.72;;;7.70;32.60;;;;;;4987534;28;20073;-78
2021/04/27 02:15:48;;;;;;;5.28;4.78;;;7.70;32.80;;;;;;4990764;28;20041;-78
2021/04/27 02:18:24;;;;;;;4.43;4.03;;;7.70;33.30;;;;;;4958689;28;20382;-79
2021/04/27 02:20:53;;;;;;;4.60;4.05;;;7.60;32.70;;;;;;4973963;28;20543;-78
2021/04/27 02:23:38;;;;;;;5.70;3.78;;;7.60;32.70;;;;;;4976588;28;20038;-79
2021/04/27 02:26:16;;;;;;;6.03;4.22;;;7.60;32.70;;;;;;4959664;28;20031;-78
2021/04/27 02:28:47;;;;;;;5.50;3.83;;;7.60;32.80;;;;;;4989904;28;20035;-79
2021/04/27 02:31:14;;;;;;;7.05;4.50;;;7.50;32.70;;;;;;4990233;28;20037;-79
2021/04/27 02:33:42;;;;;;;4.85;4.40;;;7.50;32.80;;;;;;4973630;28;20041;-79
2021/04/27 02:36:09;;;;;;;5.40;4.30;;;7.40;32.70;;;;;;4973875;28;20030;-79
2021/04/27 02:38:58;;;;;;;4.28;3.70;;;7.40;32.70;;;;;;4971849;28;20070;-80
2021/04/27 02:41:30;;;;;;;4.47;4.07;;;7.40;33.30;;;;;;4989861;28;20050;-79
2021/04/27 02:44:00;;;;;;;4.32;3.90;;;7.30;32.70;;;;;;4977061;28;20559;-79
2021/04/27 02:46:26;;;;;;;4.70;4.20;;;7.30;32.60;;;;;;4977383;28;20026;-80
2021/04/27 02:48:55;;;;;;;4.60;4.20;;;7.30;32.70;;;;;;4977524;28;20026;-81
2021/04/27 02:51:24;;;;;;;4.85;4.45;;;7.30;32.80;;;;;;4993622;28;20470;-80
2021/04/27 02:54:00;;;;;;;6.53;4.38;;;7.30;32.90;;;;;;4978199;28;20026;-80
2021/04/27 02:56:27;;;;;;;3.92;3.35;;;7.20;32.70;;;;;;4986942;28;20041;-80
2021/04/27 02:58:54;;;;;;;4.25;3.85;;;7.20;32.80;;;;;;4996248;28;20677;-80
2021/04/27 03:01:21;;;;;;;4.22;3.88;;;7.20;32.90;;;;;;4980359;28;20393;-80
2021/04/27 03:03:48;;;;;;;4.88;4.38;;;7.20;32.90;;;;;;5012929;28;20133;-80
2021/04/27 03:06:16;;;;;;;4.32;3.92;;;7.10;32.80;;;;;;5012401;28;20026;-80
2021/04/27 03:09:04;;;;;;;4.25;3.78;;;7.10;32.90;;;;;;4999757;28;20040;-81
2021/04/27 03:11:31;;;;;;;5.10;4.43;;;7.10;32.90;;;;;;4996189;28;20034;-81
2021/04/27 03:13:57;;;;;;;4.45;4.05;;;7.10;32.90;;;;;;4996375;28;20022;-81
2021/04/27 03:16:24;;;;;;;5.03;4.05;;;7.10;33.00;;;;;;5012516;28;20037;-80
2021/04/27 03:18:51;;;;;;;4.85;4.32;;;7.10;33.00;;;;;;4996576;28;20088;-81
2021/04/27 03:21:17;;;;;;;5.00;4.15;;;7.00;32.90;;;;;;4996485;28;20036;-81
2021/04/27 03:23:45;;;;;;;4.40;3.88;;;7.00;33.00;;;;;;4995989;28;20034;-81
2021/04/27 03:26:13;;;;;;;4.50;3.88;;;7.00;33.00;;;;;;5012521;28;20061;-80
2021/04/27 03:28:55;;;;;;;4.60;4.10;;;7.00;33.10;;;;;;4998259;28;20052;-79
2021/04/27 03:31:23;;;;;;;4.70;4.05;;;7.00;33.10;;;;;;5012593;28;20030;-79
2021/04/27 03:33:51;;;;;;;6.72;3.95;;;7.00;33.20;;;;;;5011983;28;20029;-80
2021/04/27 03:36:17;;;;;;;4.53;4.13;;;7.00;33.20;;;;;;5012359;28;20092;-80
2021/04/27 03:38:48;;;;;;;6.82;4.82;;;7.00;33.30;;;;;;4996420;28;20517;-80
2021/04/27 03:41:14;;;;;;;4.93;3.88;;;6.90;33.20;;;;;;5012263;28;20084;-80
2021/04/27 03:43:41;;;;;;;5.70;3.95;;;6.90;33.20;;;;;;4995721;28;20485;-80
2021/04/27 03:46:07;;;;;;;5.28;3.83;;;6.90;33.30;;;;;;5012354;28;20064;-79
2021/04/27 03:48:33;;;;;;;5.00;3.95;;;6.90;33.30;;;;;;4995778;28;20181;-79
2021/04/27 03:51:00;;;;;;;4.35;3.95;;;6.90;33.30;;;;;;5012026;28;20045;-80
2021/04/27 03:53:46;;;;;;;4.60;4.20;;;6.90;33.30;;;;;;5000392;28;20037;-80
2021/04/27 03:56:18;;;;;;;5.00;4.50;;;6.90;33.30;;;;;;5011713;28;20157;-80
2021/04/27 03:58:44;;;;;;;8.70;4.88;;;6.90;33.30;;;;;;4995751;28;20424;-79
2021/04/27 04:01:11;;;;;;;5.05;4.30;;;6.80;33.20;;;;;;5012068;28;20099;-79
2021/04/27 04:03:38;;;;;;;4.63;4.15;;;6.80;33.20;;;;;;5011776;28;20061;-79
2021/04/27 04:06:05;;;;;;;5.53;4.63;;;6.80;33.30;;;;;;5011621;28;20036;-78
2021/04/27 04:09:11;;;;;;;5.93;4.40;;;6.80;33.30;;;;;;4951892;29;20121;-78
2021/04/27 04:12:00;;;;;;;4.70;4.30;;;6.80;33.20;;;;;;4959517;28;20475;-78
2021/04/27 04:14:26;;;;;;;4.85;3.90;;;6.80;33.30;;;;;;5015643;28;20038;-79
2021/04/27 04:17:06;;;;;;;5.40;3.88;;;6.70;33.10;;;;;;5029953;28;20029;-79
2021/04/27 04:19:33;;;;;;;4.40;3.42;;;6.70;33.20;;;;;;5023357;28;20038;-79
2021/04/27 04:22:03;;;;;;;4.53;3.92;;;6.70;33.30;;;;;;5012474;28;20121;-79
2021/04/27 04:24:32;;;;;;;4.80;4.30;;;6.70;33.40;;;;;;5011336;28;20468;-79
2021/04/27 04:26:58;;;;;;;6.95;4.32;;;6.70;33.40;;;;;;4995088;28;20030;-79
2021/04/27 04:29:44;;;;;;;7.22;3.70;;;6.70;33.50;;;;;;5011475;28;20121;-80
2021/04/27 04:32:29;;;;;;;4.80;4.28;;;6.70;33.50;;;;;;4997803;28;20061;-80
2021/04/27 04:35:26;;;;;;;5.47;4.18;;;6.60;33.30;;;;;;4992876;28;20119;-80
2021/04/27 04:38:11;;;;;;;5.55;4.13;;;6.60;33.40;;;;;;5012099;28;20026;-79
2021/04/27 04:40:56;;;;;;;4.22;3.92;;;6.60;33.40;;;;;;5011204;28;20030;-79
2021/04/27 04:43:41;;;;;;;5.30;4.75;;;6.60;33.40;;;;;;5011671;28;20041;-79
2021/04/27 04:46:26;;;;;;;6.75;4.30;;;6.60;33.50;;;;;;5010893;28;20578;-80
2021/04/27 04:49:10;;;;;;;5.60;4.18;;;6.60;33.40;;;;;;5000250;28;20026;-79
2021/04/27 04:52:00;;;;;;;5.00;4.55;;;6.60;33.50;;;;;;4992087;28;20034;-79
2021/04/27 04:54:36;;;;;;;6.72;4.93;;;6.60;33.50;;;;;;5007695;28;20057;-80
2021/04/27 04:57:07;;;;;;;5.50;4.70;;;6.60;33.50;;;;;;5007923;28;20513;-79
2021/04/27 04:59:33;;;;;;;7.05;4.55;;;6.60;33.60;;;;;;5009177;28;20120;-80
2021/04/27 05:02:03;;;;;;;4.65;4.25;;;6.60;33.60;;;;;;5003112;28;20041;-80
2021/04/27 05:04:52;;;;;;;6.07;5.10;;;6.70;33.80;;;;;;5012815;28;20025;-80
2021/04/27 05:07:46;;;;;;;7.15;5.05;;;6.70;33.80;;;;;;5024487;28;20060;-80
2021/04/27 05:10:45;;;;;;;6.70;4.80;;;6.70;33.80;;;;;;5003395;28;20037;-80
2021/04/27 05:13:24;;;;;;;5.07;4.30;;;6.70;33.70;;;;;;5009227;28;20029;-80
2021/04/27 05:15:50;;;;;;;5.63;4.80;;;6.70;33.70;;;;;;4993178;28;20032;-79
2021/04/27 05:18:17;;;;;;;5.07;4.68;;;6.80;34.00;;;;;;5008008;28;20091;-78
2021/04/27 05:20:43;;;;;;;5.80;4.60;;;6.80;34.00;;;;;;4989900;28;20056;-78
2021/04/27 05:23:09;;;;;;;8.93;4.80;;;6.80;34.00;;;;;;4995554;28;20553;-78
2021/04/27 05:25:47;;;;;;;5.60;4.50;;;6.80;34.10;;;;;;4993107;28;20030;-84
2021/04/27 05:28:18;;;;;;;7.15;5.50;;;6.90;34.30;;;;;;5026965;28;20087;-81
2021/04/27 05:30:44;;;;;;;5.85;5.10;;;6.90;34.50;;;;;;4983748;28;20115;-80
2021/04/27 05:33:10;;;;;;;7.57;6.03;;;7.00;35.00;;;;;;5008285;28;20030;-80
2021/04/27 05:35:36;;;;;;;11.00;5.63;;;7.00;35.30;;;;;;4990176;28;20444;-84
2021/04/27 05:38:02;;;;;;;7.13;5.88;;;7.10;35.60;;;;;;4992193;28;20128;-79
2021/04/27 05:40:28;;;;;;;7.10;5.72;;;7.10;35.70;;;;;;4991869;28;20401;-83
2021/04/27 05:42:55;;;;;;;6.65;6.00;;;7.20;35.90;;;;;;5008268;28;20042;-82
2021/04/27 05:45:21;;;;;;;6.60;5.88;;;7.20;36.00;;;;;;5008837;28;20028;-79
2021/04/27 05:47:48;;;;;;;7.07;5.70;;;7.30;36.20;;;;;;4984642;28;20624;-82
2021/04/27 05:50:14;;;;;;;8.45;5.25;;;7.40;36.40;;;;;;5021057;28;20029;-80
2021/04/27 05:52:41;;;;;;;9.48;5.95;;;7.40;36.40;;;;;;5024962;28;20037;-81
2021/04/27 05:55:07;;;;;;;7.90;6.13;;;7.40;36.40;;;;;;4991961;28;20034;-79
2021/04/27 05:57:33;;;;;;;13.00;6.53;;;7.50;36.60;;;;;;5007998;28;20057;-83
2021/04/27 05:59:59;;;;;;;6.38;5.78;;;7.50;36.60;;;;;;4991419;28;20481;-80
2021/04/27 06:02:26;;;;;;;6.50;5.85;;;7.60;36.80;;;;;;5008351;28;20072;-80
2021/04/27 06:04:53;;;;;;;5.93;5.32;;;7.60;36.80;;;;;;5008981;28;20031;-81
2021/04/27 06:07:19;;;;;;;6.85;6.15;;;7.70;36.90;;;;;;5009099;28;20026;-80
2021/04/27 06:09:45;;;;;;;9.23;6.53;;;7.70;36.90;;;;;;5007940;28;20055;-78
2021/04/27 06:12:11;;;;;;;6.95;5.95;;;7.70;36.90;;;;;;4987459;28;20033;-81
2021/04/27 06:14:38;;;;;;;6.75;5.85;;;7.80;37.00;;;;;;5006275;28;20449;-81
2021/04/27 06:17:04;;;;;;;7.35;5.95;;;7.90;37.20;;;;;;5007721;28;20044;-80
2021/04/27 06:19:30;;;;;;;9.57;6.13;;;7.90;37.20;;;;;;5010720;28;20088;-83
2021/04/27 06:21:56;;;;;;;7.60;6.90;;;8.00;37.30;;;;;;5011496;28;20396;-82
2021/04/27 06:24:22;;;;;;;7.50;6.43;;;8.00;37.30;;;;;;5012584;28;20033;-79
2021/04/27 06:26:48;;;;;;;8.82;6.22;;;8.10;37.40;;;;;;4996495;28;20315;-80
2021/04/27 06:29:16;;;;;;;7.47;6.38;;;8.20;37.50;;;;;;4996057;28;20036;-79
2021/04/27 06:31:42;;;;;;;7.65;6.03;;;8.20;37.50;;;;;;5012032;28;20037;-78
2021/04/27 06:34:08;;;;;;;6.63;5.95;;;8.30;37.60;;;;;;5010468;28;20032;-78
2021/04/27 06:36:34;;;;;;;6.20;5.60;;;8.40;37.80;;;;;;5027688;28;20144;-79
2021/04/27 06:39:03;;;;;;;10.18;6.68;;;8.40;37.70;;;;;;5009719;28;20284;-78
2021/04/27 06:41:32;;;;;;;7.90;6.88;;;8.60;38.00;;;;;;5009930;28;20021;-78
2021/04/27 06:43:59;;;;;;;10.13;6.63;;;8.60;37.90;;;;;;5027813;28;20029;-78
2021/04/27 06:46:25;;;;;;;10.63;6.88;;;8.70;38.10;;;;;;5027924;28;20485;-78
2021/04/27 06:48:51;;;;;;;7.70;6.90;;;8.90;38.40;;;;;;5010178;28;20029;-78
2021/04/27 06:51:18;;;;;;;7.38;6.68;;;8.90;38.30;;;;;;4994468;28;20081;-79
2021/04/27 06:53:46;;;;;;;7.88;7.10;;;9.10;38.60;;;;;;5005621;28;20029;-79
2021/04/27 06:56:13;;;;;;;7.68;6.88;;;9.30;38.90;;;;;;4995170;28;20059;-78
2021/04/27 06:58:39;;;;;;;10.15;7.30;;;9.50;39.10;;;;;;5010557;28;20116;-78
2021/04/27 07:01:06;;;;;;;9.07;7.78;;;9.60;39.10;;;;;;5010582;28;20470;-79
2021/04/27 07:03:33;;;;;;;7.45;6.80;;;9.70;39.10;;;;;;5009946;28;20124;-82
2021/04/27 07:05:59;;;;;;;8.05;7.32;;;9.90;39.30;;;;;;5001496;28;20053;-79
2021/04/27 07:08:25;;;;;;;12.90;8.40;;;9.90;39.20;;;;;;5022353;28;20541;-78
2021/04/27 07:10:53;;;;;;;8.40;7.60;;;10.00;39.20;;;;;;5009437;28;20124;-80
2021/04/27 07:13:19;;;;;;;8.35;7.38;;;10.20;39.60;;;;;;5027707;28;20087;-81
2021/04/27 07:15:46;;;;;;;8.65;7.85;;;10.20;39.60;;;;;;5010429;28;20029;-81
2021/04/27 07:18:16;;;;;;;9.57;7.78;;;10.30;39.70;;;;;;5026205;28;20033;-80
2021/04/27 07:20:43;;;;;;;8.25;7.47;;;10.40;39.80;;;;;;5026025;28;20025;-80
2021/04/27 07:23:09;;;;;;;9.63;8.65;;;10.50;39.90;;;;;;5009675;28;20144;-81
2021/04/27 07:25:36;;;;;;;9.38;8.20;;;10.60;40.00;;;;;;5009228;28;20033;-80
2021/04/27 07:28:04;;;;;;;10.20;8.65;;;10.80;40.30;;;;;;4993283;28;20033;-79
2021/04/27 07:30:32;;;;;;;9.30;8.30;;;10.90;40.40;;;;;;5010244;28;20033;-79
2021/04/27 07:32:58;;;;;;;10.95;9.77;;;11.00;40.50;;;;;;5009724;28;20037;-80
2021/04/27 07:35:24;;;;;;;9.65;8.40;;;11.10;40.60;;;;;;5027099;28;20128;-80
2021/04/27 07:37:51;;;;;;;11.63;8.85;;;11.20;40.70;;;;;;5030863;28;20030;-82
2021/04/27 07:40:18;;;;;;;9.52;8.43;;;11.30;40.80;;;;;;5047132;28;20506;-82
2021/04/27 07:42:44;;;;;;;10.30;8.38;;;11.40;40.90;;;;;;5024119;28;20041;-82
2021/04/27 07:45:11;;;;;;;8.90;8.07;;;11.50;40.90;;;;;;5025862;28;20033;-81
2021/04/27 07:47:38;;;;;;;11.23;9.00;;;11.70;41.30;;;;;;5009295;28;20041;-81
2021/04/27 07:50:06;;;;;;;10.30;8.68;;;11.80;41.30;;;;;;5023395;28;20030;-80
2021/04/27 07:52:33;;;;;;;10.20;8.68;;;12.00;41.50;;;;;;5019725;28;20033;-81
2021/04/27 07:55:01;;;;;;;9.60;8.60;;;12.20;41.70;;;;;;5009588;28;20037;-85
2021/04/27 07:57:27;;;;;;;10.18;8.82;;;12.30;41.80;;;;;;4982024;28;814974;-82
2021/04/27 07:59:53;;;;;;;11.13;9.50;;;12.50;41.90;;;;;;5010236;28;20252;-80
2021/04/27 08:02:19;;;;;;;9.82;8.80;;;12.70;42.10;;;;;;5009204;28;20038;-87
2021/04/27 08:04:48;;;;;;;10.98;9.00;;;13.00;42.60;;;;;;4993692;28;20025;-83
2021/04/27 08:07:14;;;;;;;11.98;9.57;;;13.20;42.60;;;;;;5010316;28;20497;-80
2021/04/27 08:09:41;;;;;;;10.80;9.25;;;13.50;42.70;;;;;;4994510;28;20036;-81
2021/04/27 08:12:07;;;;;;;9.60;8.57;;;13.70;42.70;;;;;;4993743;28;20040;-82
2021/04/27 08:14:34;;;;;;;10.10;9.23;;;13.90;42.70;;;;;;4993431;28;20494;-81
2021/04/27 08:17:01;;;;;;;10.32;9.38;;;14.10;42.80;;;;;;5010109;28;20036;-79
2021/04/27 08:19:27;;;;;;;11.43;9.73;;;14.30;42.80;;;;;;4994009;28;20455;-79
2021/04/27 08:21:53;;;;;;;10.55;9.52;;;14.50;42.80;;;;;;5010013;28;20140;-80
2021/04/27 08:24:20;;;;;;;10.10;9.15;;;14.70;42.80;;;;;;4993503;28;20036;-83
2021/04/27 08:26:46;;;;;;;11.45;9.63;;;14.80;42.70;;;;;;5010451;28;20297;-85
2021/04/27 08:29:12;;;;;;;12.18;9.40;;;14.90;42.60;;;;;;5010195;28;20058;-82
2021/04/27 08:31:38;;;;;;;11.98;10.23;;;15.00;42.70;;;;;;5009649;28;20268;-89
2021/04/27 08:34:04;;;;;;;9.88;8.90;;;15.00;42.60;;;;;;5010288;28;20459;-81
2021/04/27 08:36:30;;;;;;;10.05;8.80;;;15.10;42.60;;;;;;5009384;28;20096;-81
2021/04/27 08:38:58;;;;;;;10.38;8.80;;;15.20;42.70;;;;;;4992978;28;20029;-80
2021/04/27 08:41:25;;;;;;;10.65;9.23;;;15.30;42.70;;;;;;5009019;28;20033;-80
2021/04/27 08:43:53;;;;;;;9.65;8.63;;;15.40;42.70;;;;;;4992830;28;20056;-82
2021/04/27 08:46:19;;;;;;;10.45;9.50;;;15.50;42.70;;;;;;5009434;28;20026;-80
2021/04/27 08:48:45;;;;;;;11.90;9.35;;;15.50;42.60;;;;;;5009071;28;20064;-80
2021/04/27 08:51:13;;;;;;;11.13;9.38;;;15.50;42.50;;;;;;4993356;28;20099;-85
2021/04/27 08:53:40;;;;;;;14.40;9.88;;;15.60;42.60;;;;;;4992599;28;20029;-83
2021/04/27 08:56:07;;;;;;;10.00;9.00;;;15.70;42.80;;;;;;4992703;28;20041;-79
2021/04/27 08:58:34;;;;;;;10.43;9.45;;;15.80;42.90;;;;;;5025553;28;20029;-80
2021/04/27 09:01:00;;;;;;;10.45;9.45;;;15.90;42.90;;;;;;5009419;28;20032;-79
2021/04/27 09:03:43;;;;;;;11.05;8.63;;;16.00;43.00;;;;;;5008594;28;20060;-81
2021/04/27 09:06:19;;;;;;;9.15;8.25;;;16.10;43.00;;;;;;5009421;28;20760;-81
2021/04/27 09:08:47;;;;;;;11.02;9.93;;;16.10;42.80;;;;;;4992674;28;20530;-92
2021/04/27 09:11:40;;;;;;;9.23;8.45;;;16.20;43.00;;;;;;5008815;28;20111;-82
2021/04/27 09:14:09;;;;;;;10.05;9.10;;;16.30;43.10;;;;;;4992344;28;20033;-83
2021/04/27 09:16:37;;;;;;;10.43;9.52;;;16.30;42.90;;;;;;5008981;28;20030;-82
2021/04/27 09:19:06;;;;;;;12.07;9.23;;;16.40;43.00;;;;;;5008840;28;20039;-85
2021/04/27 09:21:39;;;;;;;10.40;9.18;;;16.50;43.10;;;;;;5008447;28;20251;-82
2021/04/27 09:24:16;;;;;;;8.82;7.93;;;16.50;42.90;;;;;;5008245;28;20117;-81
2021/04/27 09:26:51;;;;;;;9.43;8.48;;;16.50;42.80;;;;;;5009024;28;20580;-79
2021/04/27 09:29:33;;;;;;;10.50;8.57;;;16.50;42.80;;;;;;5010337;28;20041;-83
2021/04/27 09:32:00;;;;;;;9.98;9.05;;;16.50;42.70;;;;;;5009578;28;20036;-82
2021/04/27 09:34:31;;;;;;;9.68;8.40;;;16.50;42.80;;;;;;4992948;28;20112;-80
2021/04/27 09:37:03;;;;;;;9.90;8.87;;;16.50;42.80;;;;;;5009344;28;20538;-82
2021/04/27 09:39:51;;;;;;;9.32;8.32;;;16.50;43.00;;;;;;5009191;28;20029;-79
2021/04/27 09:42:23;;;;;;;9.60;8.45;;;16.50;42.80;;;;;;5008080;28;20104;-85
2021/04/27 09:44:55;;;;;;;10.10;9.20;;;16.70;43.10;;;;;;5008400;28;20396;-84
2021/04/27 09:47:31;;;;;;;9.90;8.90;;;16.80;43.30;;;;;;5008955;28;20037;-83
2021/04/27 09:50:04;;;;;;;12.45;9.90;;;17.00;43.50;;;;;;4987613;28;20072;-83
2021/04/27 09:52:32;;;;;;;10.07;9.00;;;17.20;43.60;;;;;;4994601;28;20144;-79
2021/04/27 09:55:06;;;;;;;9.80;8.52;;;17.30;43.60;;;;;;5015365;28;20037;-87
2021/04/27 09:57:42;;;;;;;10.23;9.23;;;17.50;43.70;;;;;;5013174;28;20078;-84
2021/04/27 10:00:32;;;;;;;9.25;8.38;;;17.60;43.70;;;;;;5012575;28;20309;-85
2021/04/27 10:03:13;;;;;;;9.10;8.15;;;17.80;43.70;;;;;;4995791;28;20041;-85
2021/04/27 10:05:45;;;;;;;9.05;8.25;;;17.90;43.80;;;;;;4996624;28;20029;-83
2021/04/27 10:08:13;;;;;;;8.88;8.10;;;18.10;43.90;;;;;;4996354;28;20053;-84
2021/04/27 10:10:39;;;;;;;9.55;8.60;;;18.20;44.00;;;;;;4997667;28;20374;-85
2021/04/27 10:13:10;;;;;;;11.88;8.43;;;18.30;43.90;;;;;;5014820;28;20079;-84
2021/04/27 10:15:37;;;;;;;9.70;8.82;;;18.50;44.10;;;;;;4998211;28;20038;-88
2021/04/27 10:18:06;;;;;;;9.85;8.32;;;18.70;44.20;;;;;;5013733;28;20108;-83
2021/04/27 10:20:32;;;;;;;8.70;7.80;;;18.80;44.20;;;;;;5013058;28;20034;-85
2021/04/27 10:23:05;;;;;;;8.43;7.63;;;19.00;44.40;;;;;;5011889;28;20049;-82
2021/04/27 10:47:51;;;;;;;8.98;7.85;;;20.00;44.50;;;;;;4912249;29;20092;-84
2021/04/27 11:45:27;;;;;;;7.85;5.45;;;22.20;45.20;;;;;;4940850;29;20039;-83
2021/04/27 12:11:11;;;;;;;6.70;4.53;;;23.00;45.30;;;;;;4927336;29;20043;-84
2021/04/27 12:14:55;;;;;;;6.32;5.07;;;23.20;45.40;;;;;;4879528;29;20063;-84
2021/04/27 12:17:33;;;;;;;6.93;5.00;;;23.30;45.30;;;;;;4891352;29;20032;-82
2021/04/27 12:20:17;;;;;;;5.25;4.45;;;23.40;45.20;;;;;;4946973;28;20533;-83
2021/04/27 12:22:55;;;;;;;8.65;4.55;;;23.60;45.30;;;;;;4934342;28;20414;-85
2021/04/27 12:25:28;;;;;;;5.60;4.57;;;23.70;45.20;;;;;;4934355;28;20056;-85
2021/04/27 12:28:05;;;;;;;5.43;4.85;;;23.80;45.20;;;;;;4933988;28;20735;-83
2021/04/27 12:30:35;;;;;;;8.02;4.60;;;23.90;45.20;;;;;;4949800;28;20027;-83
2021/04/27 12:33:09;;;;;;;5.25;4.70;;;24.00;45.30;;;;;;4949242;28;20042;-83
2021/04/27 12:39:27;;;;;;;4.80;4.20;;;24.20;45.20;;;;;;4934841;28;20033;-84
2021/04/27 12:42:02;;;;;;;6.05;5.03;;;24.30;45.30;;;;;;4966236;28;20243;-84
2021/04/27 12:45:09;;;;;;;8.40;4.75;;;24.30;45.10;;;;;;4950308;28;20030;-84
2021/04/27 12:47:42;;;;;;;5.95;4.50;;;24.40;45.10;;;;;;4965709;28;20509;-84
2021/04/27 12:50:57;;;;;;;5.03;4.50;;;24.50;45.20;;;;;;4924122;28;20121;-84
2021/04/27 12:54:26;;;;;;;5.20;4.00;;;24.50;45.00;;;;;;4965637;28;20119;-85
2021/04/27 12:58:47;;;;;;;5.18;4.65;;;24.60;45.10;;;;;;4965610;28;20117;-86
2021/04/27 13:01:54;;;;;;;8.35;5.00;;;24.90;45.50;;;;;;4948739;28;20339;-85
2021/04/27 13:05:39;;;;;;;4.55;4.15;;;25.10;45.40;;;;;;4964742;28;20047;-85
2021/04/27 13:09:18;;;;;;;5.70;4.40;;;25.20;45.20;;;;;;4952829;28;20046;-86
2021/04/27 13:12:16;;;;;;;11.43;4.85;;;25.10;45.10;;;;;;4930728;28;20043;-85
2021/04/27 13:14:46;;;;;;;5.47;4.63;;;25.00;45.10;;;;;;4948683;28;20051;-82
2021/04/27 13:17:40;;;;;;;6.57;4.93;;;25.00;45.20;;;;;;4933470;28;20023;-81
2021/04/27 13:20:11;;;;;;;6.50;4.70;;;25.00;45.20;;;;;;4964871;28;20034;-84
2021/04/27 13:23:04;;;;;;;6.97;5.40;;;25.10;45.10;;;;;;4978547;28;20125;-85
2021/04/27 13:25:44;;;;;;;4.97;4.50;;;25.30;45.10;;;;;;4918296;28;20477;-83
2021/04/27 13:28:17;;;;;;;5.00;4.25;;;25.40;44.80;;;;;;4964797;28;20031;-82
2021/04/27 13:31:13;;;;;;;6.95;4.80;;;25.60;44.80;;;;;;4932628;28;20042;-85
2021/04/27 13:33:44;;;;;;;8.02;4.82;;;25.60;44.60;;;;;;4919713;28;20515;-82
2021/04/27 13:36:13;;;;;;;6.38;4.40;;;25.60;44.60;;;;;;4949040;28;20090;-83
2021/04/27 13:38:42;;;;;;;6.15;4.20;;;25.70;44.50;;;;;;4917651;28;20049;-83
2021/04/27 13:41:10;;;;;;;5.93;4.80;;;25.70;44.50;;;;;;4946974;28;20092;-82
2021/04/27 13:43:45;;;;;;;6.25;4.68;;;25.80;44.50;;;;;;4942424;28;20301;-82
2021/04/27 13:46:17;;;;;;;6.57;4.90;;;25.90;45.00;;;;;;4968033;28;20379;-82
2021/04/27 13:48:45;;;;;;;5.80;5.13;;;26.00;44.20;;;;;;4968185;28;20036;-83
2021/04/27 13:51:15;;;;;;;5.53;3.88;;;26.00;44.10;;;;;;4967796;28;20129;-83
2021/04/27 13:53:42;;;;;;;5.57;4.45;;;26.00;44.10;;;;;;4929013;28;20116;-83
2021/04/27 13:56:16;;;;;;;6.63;4.03;;;26.00;44.10;;;;;;4968108;28;20069;-83
2021/04/27 13:58:43;;;;;;;6.47;4.07;;;26.00;44.00;;;;;;4952363;28;20097;-83
2021/04/27 14:01:15;;;;;;;5.30;3.97;;;26.10;44.00;;;;;;4967965;28;20089;-83
2021/04/27 14:07:40;;;;;;;4.93;3.80;;;26.40;43.80;;;;;;4984642;28;20368;-83
2021/04/27 14:10:27;;;;;;;7.38;4.30;;;26.60;43.80;;;;;;4972578;28;20085;-83
2021/04/27 14:12:56;;;;;;;5.18;4.00;;;26.70;43.70;;;;;;4953012;28;20101;-82
2021/04/27 14:15:26;;;;;;;4.47;3.90;;;26.80;43.70;;;;;;4951809;28;20050;-84
2021/04/27 14:17:52;;;;;;;4.90;3.95;;;26.90;43.60;;;;;;4968270;28;20030;-82
2021/04/27 14:20:21;;;;;;;5.32;3.25;;;27.10;43.60;;;;;;4968963;28;20065;-84
2021/04/27 14:22:47;;;;;;;5.85;3.28;;;27.20;43.40;;;;;;4969287;28;20039;-83
2021/04/27 14:25:14;;;;;;;4.07;3.67;;;27.20;43.30;;;;;;4967877;28;20027;-83
2021/04/27 14:27:41;;;;;;;4.47;3.75;;;27.30;43.20;;;;;;4967732;28;20039;-84
2021/04/27 14:30:13;;;;;;;4.38;3.33;;;27.40;43.80;;;;;;4968733;28;20030;-84
2021/04/27 14:32:42;;;;;;;4.80;3.35;;;27.50;43.10;;;;;;4968725;28;20457;-87
2021/04/27 14:35:35;;;;;;;6.18;3.78;;;27.60;43.10;;;;;;4954131;28;20042;-83
2021/04/27 14:38:48;;;;;;;10.55;3.75;;;27.80;43.00;;;;;;4969662;28;20037;-85
2021/04/27 14:41:16;;;;;;;8.48;4.78;;;27.90;42.10;;;;;;4955594;28;20037;-85
2021/04/27 14:43:42;;;;;;;10.45;4.70;;;27.90;41.30;;;;;;4971645;28;20422;-85
2021/04/27 15:30:00;;;;;;;12.20;7.53;;;24.30;39.60;;;;;;5029196;28;20044;-85
2021/04/27 15:32:45;;;;;;;7.70;6.97;;;24.00;39.40;;;;;;5026799;28;20046;-82
2021/04/27 15:35:12;;;;;;;9.18;7.25;;;23.80;39.20;;;;;;5028442;28;20571;-83
2021/04/27 15:37:39;;;;;;;10.25;6.95;;;23.70;39.00;;;;;;5028436;28;20291;-84
2021/04/27 15:40:08;;;;;;;9.75;6.85;;;23.70;39.20;;;;;;5026627;28;20087;-82
2021/04/27 15:42:34;;;;;;;9.23;6.13;;;23.80;39.40;;;;;;5027956;28;20033;-86
2021/04/27 15:45:00;;;;;;;8.20;6.40;;;24.00;39.70;;;;;;4996061;28;20036;-83
2021/04/27 15:47:26;;;;;;;7.22;5.70;;;24.10;39.80;;;;;;5029467;28;20063;-83
2021/04/27 15:49:52;;;;;;;6.65;5.78;;;24.10;39.80;;;;;;5025875;28;20666;-83